PWSweather.com
Personal Weather Stations
Station Observations
AS787
Cloppers Mill East, Germantown, MD 20874-2154

Cloppers Mill EastGermantown, MD 20874-2154

Lat: 39.1522, Lon: -77.2679

Elevation: 318

Station Type: 1-Wire

http://www.cloppermillweather.org/

High Low Average
Temperature 42.4°F5.8°C 22.6°F-5.2°C 32.9°F0.5°C
Dew Point 28.2°F-2.1°C 18.9°F-7.3°C 22.9°F-5.1°C
Winds 1.3 mph 2.1 kmh Calm Calm Calm SECalm SE
Wind Gusts 5.0 mph8.0 kmh -- 2.0 mph3.2 kmh
Humidity 92% 39% 69%
Pressure 30.79 in1042.7 mb 30.54 in1034.2 mb -
Precipitation 0.00 in0.0 mm - -
Hour Temp Dew Point Humidity Winds Wind Gusts Pressure Precip Precip Rate Daily Precip Total
12:14 AM 29.0°F-1.7°C 23.3°F-4.8°C 79% Calm Calm -- 30.66 in1038.3 mb 0.00 in0.0 mm 0.00 in0.0 mm 0.00 in0.0 mm
12:44 AM 28.3°F-2.1°C 23.7°F-4.6°C 83% Calm Calm -- 30.68 in1038.9 mb 0.00 in0.0 mm 0.00 in0.0 mm 0.00 in0.0 mm
01:14 AM 28.1°F-2.2°C 23.9°F-4.5°C 84% Calm Calm -- 30.68 in1038.9 mb 0.00 in0.0 mm 0.00 in0.0 mm 0.00 in0.0 mm
01:44 AM 28.0°F-2.2°C 23.7°F-4.6°C 84% Calm Calm -- 30.68 in1038.9 mb 0.00 in0.0 mm 0.00 in0.0 mm 0.00 in0.0 mm
02:14 AM 27.5°F-2.5°C 23.9°F-4.5°C 86% Calm Calm -- 30.69 in1039.3 mb 0.00 in0.0 mm 0.00 in0.0 mm 0.00 in0.0 mm
02:44 AM 27.0°F-2.8°C 23.6°F-4.7°C 87% Calm Calm -- 30.69 in1039.3 mb 0.00 in0.0 mm 0.00 in0.0 mm 0.00 in0.0 mm
03:14 AM 26.1°F-3.3°C 23.0°F-5.0°C 88% Calm Calm -- 30.70 in1039.6 mb 0.00 in0.0 mm 0.00 in0.0 mm 0.00 in0.0 mm
03:44 AM 25.4°F-3.7°C 22.6°F-5.2°C 89% Calm Calm -- 30.70 in1039.6 mb 0.00 in0.0 mm 0.00 in0.0 mm 0.00 in0.0 mm
04:14 AM 25.6°F-3.6°C 23.1°F-4.9°C 90% Calm Calm -- 30.70 in1039.6 mb 0.00 in0.0 mm 0.00 in0.0 mm 0.00 in0.0 mm
04:44 AM 25.5°F-3.6°C 22.7°F-5.2°C 89% Calm Calm -- 30.71 in1040.0 mb 0.00 in0.0 mm 0.00 in0.0 mm 0.00 in0.0 mm
05:14 AM 25.3°F-3.7°C 22.3°F-5.4°C 88% Calm Calm -- 30.71 in1040.0 mb 0.00 in0.0 mm 0.00 in0.0 mm 0.00 in0.0 mm
05:44 AM 25.1°F-3.8°C 21.8°F-5.7°C 87% Calm Calm -- 30.72 in1040.3 mb 0.00 in0.0 mm 0.00 in0.0 mm 0.00 in0.0 mm
06:14 AM 24.8°F-4.0°C 21.7°F-5.7°C 88% Calm Calm -- 30.73 in1040.6 mb 0.00 in0.0 mm 0.00 in0.0 mm 0.00 in0.0 mm
06:44 AM 23.9°F-4.5°C 20.9°F-6.2°C 88% Calm Calm -- 30.75 in1041.3 mb 0.00 in0.0 mm 0.00 in0.0 mm 0.00 in0.0 mm
07:14 AM 23.4°F-4.8°C 20.6°F-6.3°C 89% Calm Calm -- 30.75 in1041.3 mb 0.00 in0.0 mm 0.00 in0.0 mm 0.00 in0.0 mm
07:44 AM 22.7°F-5.2°C 20.0°F-6.7°C 89% Calm Calm -- 30.76 in1041.7 mb 0.00 in0.0 mm 0.00 in0.0 mm 0.00 in0.0 mm
08:14 AM 22.6°F-5.2°C 20.1°F-6.6°C 90% Calm Calm -- 30.77 in1042.0 mb 0.00 in0.0 mm 0.00 in0.0 mm 0.00 in0.0 mm
08:44 AM 22.6°F-5.2°C 20.3°F-6.5°C 91% Calm Calm -- 30.78 in1042.3 mb 0.00 in0.0 mm 0.00 in0.0 mm 0.00 in0.0 mm
09:14 AM 23.9°F-4.5°C 21.9°F-5.6°C 92% Calm Calm -- 30.79 in1042.7 mb 0.00 in0.0 mm 0.00 in0.0 mm 0.00 in0.0 mm
09:44 AM 29.3°F-1.5°C 20.5°F-6.4°C 69% 0.2 mph NNE0.3 kmh NNE 1.0 mph1.6 kmh 30.78 in1042.3 mb 0.00 in0.0 mm 0.00 in0.0 mm 0.00 in0.0 mm
10:14 AM 30.8°F-0.7°C 20.3°F-6.5°C 65% 0.5 mph 0.8 kmh 4.0 mph6.4 kmh 30.78 in1042.3 mb 0.00 in0.0 mm 0.00 in0.0 mm 0.00 in0.0 mm
10:44 AM 32.5°F0.3°C 20.3°F-6.5°C 60% Calm Calm -- 30.79 in1042.7 mb 0.00 in0.0 mm 0.00 in0.0 mm 0.00 in0.0 mm
11:14 AM 33.4°F0.8°C 20.1°F-6.6°C 58% Calm Calm -- 30.77 in1042.0 mb 0.00 in0.0 mm 0.00 in0.0 mm 0.00 in0.0 mm
11:44 AM 34.3°F1.3°C 19.3°F-7.1°C 54% Calm Calm 3.0 mph4.8 kmh 30.77 in1042.0 mb 0.00 in0.0 mm 0.00 in0.0 mm 0.00 in0.0 mm
12:14 PM 35.4°F1.9°C 19.2°F-7.1°C 51% 1.1 mph NNE1.8 kmh NNE 2.0 mph3.2 kmh 30.76 in1041.7 mb 0.00 in0.0 mm 0.00 in0.0 mm 0.00 in0.0 mm
12:44 PM 37.0°F2.8°C 20.2°F-6.6°C 50% 0.5 mph NE0.8 kmh NE 3.0 mph4.8 kmh 30.74 in1041.0 mb 0.00 in0.0 mm 0.00 in0.0 mm 0.00 in0.0 mm
01:14 PM 39.2°F4.0°C 20.7°F-6.3°C 47% 0.5 mph SW0.8 kmh SW 5.0 mph8.0 kmh 30.74 in1041.0 mb 0.00 in0.0 mm 0.00 in0.0 mm 0.00 in0.0 mm
01:44 PM 41.4°F5.2°C 20.9°F-6.2°C 44% 0.2 mph WSW0.3 kmh WSW 5.0 mph8.0 kmh 30.71 in1040.0 mb 0.00 in0.0 mm 0.00 in0.0 mm 0.00 in0.0 mm
02:14 PM 41.9°F5.5°C 21.2°F-6.0°C 43% 0.7 mph WSW1.1 kmh WSW 5.0 mph8.0 kmh 30.70 in1039.6 mb 0.00 in0.0 mm 0.00 in0.0 mm 0.00 in0.0 mm
02:44 PM 42.1°F5.6°C 19.3°F-7.1°C 40% 1.3 mph WSW2.1 kmh WSW 3.0 mph4.8 kmh 30.69 in1039.3 mb 0.00 in0.0 mm 0.00 in0.0 mm 0.00 in0.0 mm
03:14 PM 42.4°F5.8°C 18.9°F-7.3°C 39% 0.8 mph WSW1.3 kmh WSW 4.0 mph6.4 kmh 30.67 in1038.6 mb 0.00 in0.0 mm 0.00 in0.0 mm 0.00 in0.0 mm
03:44 PM 41.2°F5.1°C 19.5°F-6.9°C 41% 1.3 mph ENE2.1 kmh ENE 5.0 mph8.0 kmh 30.67 in1038.6 mb 0.00 in0.0 mm 0.00 in0.0 mm 0.00 in0.0 mm
04:14 PM 40.3°F4.6°C 21.0°F-6.1°C 46% Calm Calm 2.0 mph3.2 kmh 30.68 in1038.9 mb 0.00 in0.0 mm 0.00 in0.0 mm 0.00 in0.0 mm
04:44 PM 39.7°F4.3°C 22.5°F-5.3°C 50% Calm Calm -- 30.67 in1038.6 mb 0.00 in0.0 mm 0.00 in0.0 mm 0.00 in0.0 mm
05:14 PM 39.8°F4.3°C 21.4°F-5.9°C 47% 0.4 mph SW0.6 kmh SW 4.0 mph6.4 kmh 30.67 in1038.6 mb 0.00 in0.0 mm 0.00 in0.0 mm 0.00 in0.0 mm
05:44 PM 38.6°F3.7°C 25.5°F-3.6°C 59% Calm Calm 3.0 mph4.8 kmh 30.66 in1038.3 mb 0.00 in0.0 mm 0.00 in0.0 mm 0.00 in0.0 mm
06:14 PM 37.1°F2.8°C 28.2°F-2.1°C 70% Calm Calm -- 30.66 in1038.3 mb 0.00 in0.0 mm 0.00 in0.0 mm 0.00 in0.0 mm
06:44 PM 36.3°F2.4°C 28.0°F-2.2°C 72% Calm Calm -- 30.65 in1037.9 mb 0.00 in0.0 mm 0.00 in0.0 mm 0.00 in0.0 mm
07:14 PM 36.3°F2.4°C 26.3°F-3.2°C 67% Calm Calm -- 30.65 in1037.9 mb 0.00 in0.0 mm 0.00 in0.0 mm 0.00 in0.0 mm
07:44 PM 36.5°F2.5°C 26.4°F-3.1°C 67% Calm Calm -- 30.64 in1037.6 mb 0.00 in0.0 mm 0.00 in0.0 mm 0.00 in0.0 mm
08:14 PM 36.6°F2.6°C 26.0°F-3.3°C 65% Calm Calm 3.0 mph4.8 kmh 30.63 in1037.3 mb 0.00 in0.0 mm 0.00 in0.0 mm 0.00 in0.0 mm
08:44 PM 36.5°F2.5°C 26.1°F-3.3°C 66% Calm Calm 3.0 mph4.8 kmh 30.62 in1036.9 mb 0.00 in0.0 mm 0.00 in0.0 mm 0.00 in0.0 mm
09:14 PM 36.5°F2.5°C 26.3°F-3.2°C 66% Calm Calm 3.0 mph4.8 kmh 30.61 in1036.6 mb 0.00 in0.0 mm 0.00 in0.0 mm 0.00 in0.0 mm
09:44 PM 36.5°F2.5°C 26.3°F-3.2°C 66% 0.2 mph WSW0.3 kmh WSW 2.0 mph3.2 kmh 30.61 in1036.6 mb 0.00 in0.0 mm 0.00 in0.0 mm 0.00 in0.0 mm
10:14 PM 36.5°F2.5°C 26.3°F-3.2°C 66% 0.3 mph SW0.5 kmh SW 1.0 mph1.6 kmh 30.60 in1036.2 mb 0.00 in0.0 mm 0.00 in0.0 mm 0.00 in0.0 mm
10:44 PM 36.5°F2.5°C 27.4°F-2.6°C 69% Calm Calm 2.0 mph3.2 kmh 30.59 in1035.9 mb 0.00 in0.0 mm 0.00 in0.0 mm 0.00 in0.0 mm
11:14 PM 36.3°F2.4°C 27.6°F-2.4°C 70% 0.1 mph WSW0.2 kmh WSW 2.0 mph3.2 kmh 30.57 in1035.2 mb 0.00 in0.0 mm 0.00 in0.0 mm 0.00 in0.0 mm
11:44 PM 36.4°F2.4°C 26.5°F-3.1°C 67% 0.1 mph SW0.2 kmh SW 5.0 mph8.0 kmh 30.57 in1035.2 mb 0.00 in0.0 mm 0.00 in0.0 mm 0.00 in0.0 mm